CST,Max TemperatureF,Mean TemperatureF,Min TemperatureF,Max Dew PointF,MeanDew PointF,Min DewpointF,Max Humidity, Mean Humidity, Min Humidity, Max Sea Level PressureIn, Mean Sea Level PressureIn, Min Sea Level PressureIn, Max VisibilityMiles, Mean VisibilityMiles, Min VisibilityMiles, Max Wind SpeedMPH, Mean Wind SpeedMPH, Max Gust SpeedMPH,PrecipitationIn, CloudCover, Events, WindDirDegrees
2012-11-1,86,68,50,54,43,36,71,48,17,30.11,30.04,29.98,10,10,10,12,2,18,0.00,0,,243
2012-11-2,86,70,53,55,49,43,88,53,25,30.05,30.00,29.93,10,10,10,17,4,23,0.00,0,,188
2012-11-3,82,68,55,59,54,46,94,65,37,30.13,30.07,30.00,10,10,7,12,3,,0.00,0,,270
2012-11-4,73,63,53,46,41,37,67,49,27,30.20,30.14,30.10,10,10,10,9,4,,0.00,0,,344
2012-11-5,77,62,48,50,39,32,82,48,19,30.15,30.10,30.07,10,10,10,16,4,21,0.00,0,,354
2012-11-6,78,60,41,41,36,34,76,48,20,30.21,30.15,30.09,10,10,10,10,2,,0.00,0,,275
2012-11-7,78,61,44,41,35,30,76,42,18,30.24,30.15,30.09,10,10,4,9,3,,0.00,0,,147
2012-11-8,80,65,50,54,45,37,72,48,28,30.11,30.04,29.98,10,10,10,23,7,30,0.00,0,,177
2012-11-9,82,72,62,59,55,46,88,60,30,30.04,30.00,29.94,10,10,10,23,13,32,0.00,0,,181
2012-11-10,78,70,62,59,57,52,88,64,39,30.01,29.92,29.84,10,10,10,25,15,34,0.00,2,,175
2012-11-11,73,58,42,61,43,19,76,51,18,30.30,29.99,29.78,10,10,10,18,13,28,0.00,5,,275
2012-11-12,53,43,32,32,22,14,81,49,21,30.53,30.46,30.31,10,10,10,13,7,16,0.00,0,,12
2012-11-13,57,44,30,28,21,14,81,45,20,30.53,30.43,30.33,10,10,10,14,3,17,0.00,2,,136
2012-11-14,62,47,32,30,23,14,81,44,15,30.44,30.36,30.29,10,10,10,7,1,,0.00,0,,152
2012-11-15,66,50,33,37,31,25,75,50,34,30.35,30.29,30.22,10,10,10,10,2,,0.00,2,,137
2012-11-16,62,50,39,32,30,27,75,46,27,30.43,30.37,30.33,10,10,2,8,2,,0.00,1,,94
2012-11-17,66,50,33,32,27,21,81,48,19,30.41,30.34,30.28,10,10,10,10,2,,0.00,0,,155
2012-11-18,68,56,44,41,34,30,61,44,26,30.29,30.24,30.19,10,10,10,18,6,23,0.00,1,,167
2012-11-19,73,63,53,54,50,41,82,66,47,30.25,30.19,30.13,10,10,10,14,5,20,0.00,4,,176
2012-11-20,78,66,51,55,46,41,94,55,26,30.24,30.20,30.16,10,10,1,7,3,,0.00,0,,19
2012-11-21,77,60,44,55,47,41,87,62,38,30.29,30.22,30.14,10,10,10,12,2,,0.00,1,,169
2012-11-22,77,64,51,54,50,45,82,65,41,30.14,30.10,30.03,10,10,10,18,6,25,0.00,0,,181
2012-11-23,64,53,42,54,31,18,94,45,16,30.47,30.35,30.13,10,10,10,21,9,32,0.00,2,,12
2012-11-24,62,47,32,25,20,14,75,36,15,30.46,30.31,30.10,10,10,10,10,4,16,0.00,0,,163
2012-11-25,78,60,41,50,36,19,77,44,28,30.10,29.96,29.87,10,10,10,16,8,22,0.00,0,,190
2012-11-26,77,62,48,55,44,30,100,63,22,30.30,30.03,29.90,10,9,4,22,8,30,0.00,0,,293
2012-11-27,55,45,35,34,30,25,87,60,38,30.47,30.37,30.30,10,10,10,17,9,28,0.00,1,,353
2012-11-28,68,50,32,41,35,32,100,66,30,30.43,30.34,30.27,10,9,1,13,3,,0.00,0,,164
2012-11-29,69,53,37,50,42,34,93,66,38,30.27,30.19,30.11,10,10,10,15,6,22,0.00,0,,185
2012-11-30,77,64,50,55,52,46,100,71,41,30.16,30.09,30.03,10,8,2,15,7,22,0.00,0,,187